CDG1211 ZSQD-ZBAA
Flight info
| Callsign | CDG1211 |
|---|---|
| Flight time | 1h 7m |
| Altitude | 25600 |
| Route | WFG81D WFG W103 YQG W160 TUMLO W157 AVBOX AVBOX6J |
| Aircraft | B38M/M-SDE1FGHILORVWXY/HB1 |
Departure
| Time | 2026-04-20 14:41 |
|---|---|
| Airport | Qingdao Jiaodong International Airport (ZSQD) |
Arrival
| Time | 2026-04-20 15:48 |
|---|---|
| Airport | Beijing Capital International Airport (ZBAA) |
| Time | Latitude | Longitude | Altitude | Speed | Heading |
|---|---|---|---|---|---|
| 2026-04-20 14:22 | 36.36196 | 120.08209 | 40 ft | 0 kts | 12° |
| 2026-04-20 14:24 | 36.36194 | 120.08208 | 40 ft | 2 kts | 12° |
| 2026-04-20 14:24 | 36.36174 | 120.08205 | 39 ft | 3 kts | 357° |
| 2026-04-20 14:24 | 36.36156 | 120.08210 | 38 ft | 3 kts | 327° |
| 2026-04-20 14:25 | 36.36145 | 120.08226 | 38 ft | 3 kts | 284° |
| 2026-04-20 14:25 | 36.36144 | 120.08229 | 39 ft | 0 kts | 282° |
| 2026-04-20 14:28 | 36.36144 | 120.08228 | 38 ft | 1 kts | 282° |
| 2026-04-20 14:28 | 36.36151 | 120.08187 | 40 ft | 7 kts | 282° |
| 2026-04-20 14:29 | 36.36166 | 120.08105 | 40 ft | 13 kts | 282° |
| 2026-04-20 14:29 | 36.36174 | 120.08022 | 40 ft | 16 kts | 264° |
| 2026-04-20 14:29 | 36.36147 | 120.07868 | 40 ft | 21 kts | 251° |
| 2026-04-20 14:29 | 36.36083 | 120.07787 | 40 ft | 12 kts | 166° |
| 2026-04-20 14:30 | 36.35993 | 120.07821 | 39 ft | 15 kts | 162° |
| 2026-04-20 14:30 | 36.35875 | 120.07868 | 40 ft | 20 kts | 164° |
| 2026-04-20 14:30 | 36.35726 | 120.07925 | 40 ft | 25 kts | 159° |
| 2026-04-20 14:30 | 36.35548 | 120.07995 | 40 ft | 29 kts | 166° |
| 2026-04-20 14:31 | 36.35343 | 120.08076 | 39 ft | 33 kts | 162° |
| 2026-04-20 14:31 | 36.35111 | 120.08167 | 39 ft | 37 kts | 162° |
| 2026-04-20 14:31 | 36.34851 | 120.08269 | 38 ft | 41 kts | 162° |
| 2026-04-20 14:31 | 36.34607 | 120.08365 | 38 ft | 37 kts | 162° |
| 2026-04-20 14:32 | 36.34350 | 120.08465 | 38 ft | 32 kts | 162° |
| 2026-04-20 14:32 | 36.34218 | 120.08517 | 38 ft | 23 kts | 162° |
| 2026-04-20 14:32 | 36.34117 | 120.08521 | 38 ft | 8 kts | 237° |
| 2026-04-20 14:32 | 36.34090 | 120.08414 | 39 ft | 18 kts | 255° |
| 2026-04-20 14:33 | 36.34127 | 120.08333 | 39 ft | 8 kts | 343° |
| 2026-04-20 14:33 | 36.34168 | 120.08318 | 40 ft | 6 kts | 342° |
| 2026-04-20 14:33 | 36.34214 | 120.08299 | 40 ft | 10 kts | 342° |
| 2026-04-20 14:33 | 36.34221 | 120.08296 | 40 ft | 0 kts | 342° |
| 2026-04-20 14:40 | 36.34338 | 120.08251 | 41 ft | 52 kts | 343° |
| 2026-04-20 14:40 | 36.34961 | 120.08008 | 38 ft | 132 kts | 342° |
| 2026-04-20 14:40 | 36.36040 | 120.07587 | 167 ft | 184 kts | 342° |
| 2026-04-20 14:41 | 36.37296 | 120.07082 | 989 ft | 195 kts | 340° |
| 2026-04-20 14:41 | 36.38411 | 120.06247 | 2055 ft | 190 kts | 313° |
| 2026-04-20 14:41 | 36.39291 | 120.04924 | 2761 ft | 213 kts | 307° |
| 2026-04-20 14:41 | 36.40375 | 120.03544 | 3477 ft | 233 kts | 326° |
| 2026-04-20 14:42 | 36.41741 | 120.02461 | 4577 ft | 233 kts | 329° |
| 2026-04-20 14:42 | 36.43138 | 120.01356 | 5524 ft | 242 kts | 329° |
| 2026-04-20 14:42 | 36.44581 | 120.00215 | 6642 ft | 244 kts | 330° |
| 2026-04-20 14:42 | 36.46048 | 119.99124 | 7622 ft | 256 kts | 330° |
| 2026-04-20 14:43 | 36.47623 | 119.97953 | 8493 ft | 269 kts | 329° |
| 2026-04-20 14:43 | 36.49214 | 119.96766 | 9758 ft | 266 kts | 328° |
| 2026-04-20 14:43 | 36.50822 | 119.95564 | 10739 ft | 274 kts | 328° |
| 2026-04-20 14:43 | 36.52517 | 119.94297 | 11327 ft | 294 kts | 327° |
| 2026-04-20 14:44 | 36.54335 | 119.92936 | 11847 ft | 315 kts | 327° |
| 2026-04-20 14:44 | 36.56250 | 119.91504 | 12382 ft | 333 kts | 327° |
| 2026-04-20 14:44 | 36.58281 | 119.89981 | 13092 ft | 346 kts | 327° |
| 2026-04-20 14:44 | 36.60366 | 119.88418 | 14007 ft | 350 kts | 326° |
| 2026-04-20 14:45 | 36.62465 | 119.86844 | 14881 ft | 353 kts | 326° |
| 2026-04-20 14:45 | 36.64589 | 119.85371 | 15786 ft | 357 kts | 333° |
| 2026-04-20 14:45 | 36.66965 | 119.84402 | 16718 ft | 360 kts | 336° |
| 2026-04-20 14:45 | 36.69358 | 119.83437 | 17555 ft | 362 kts | 336° |
| 2026-04-20 14:46 | 36.71766 | 119.82477 | 18417 ft | 364 kts | 336° |
| 2026-04-20 14:46 | 36.74178 | 119.81491 | 19127 ft | 364 kts | 332° |
| 2026-04-20 14:46 | 36.76325 | 119.79914 | 19731 ft | 357 kts | 315° |
| 2026-04-20 14:46 | 36.77934 | 119.77599 | 20303 ft | 354 kts | 299° |
| 2026-04-20 14:47 | 36.78892 | 119.74765 | 20906 ft | 355 kts | 284° |
| 2026-04-20 14:47 | 36.79160 | 119.71694 | 21548 ft | 359 kts | 271° |
| 2026-04-20 14:47 | 36.78791 | 119.68598 | 22236 ft | 363 kts | 262° |
| 2026-04-20 14:48 | 36.77522 | 119.62506 | 23396 ft | 366 kts | 259° |
| 2026-04-20 14:48 | 36.76797 | 119.59445 | 23867 ft | 370 kts | 258° |
| 2026-04-20 14:48 | 36.76044 | 119.56373 | 24295 ft | 372 kts | 258° |
| 2026-04-20 14:48 | 36.75270 | 119.53277 | 24697 ft | 374 kts | 258° |
| 2026-04-20 14:49 | 36.74482 | 119.50165 | 25037 ft | 378 kts | 257° |
| 2026-04-20 14:49 | 36.73679 | 119.47013 | 25335 ft | 383 kts | 257° |
| 2026-04-20 14:49 | 36.72864 | 119.43823 | 25623 ft | 387 kts | 257° |
| 2026-04-20 14:49 | 36.72047 | 119.40631 | 25727 ft | 395 kts | 257° |
| 2026-04-20 14:50 | 36.71204 | 119.37345 | 25729 ft | 401 kts | 257° |
| 2026-04-20 14:50 | 36.70351 | 119.34024 | 25742 ft | 403 kts | 257° |
| 2026-04-20 14:50 | 36.69495 | 119.30698 | 25755 ft | 403 kts | 257° |
| 2026-04-20 14:50 | 36.68640 | 119.27377 | 25758 ft | 403 kts | 257° |
| 2026-04-20 14:51 | 36.67784 | 119.24056 | 25768 ft | 403 kts | 257° |
| 2026-04-20 14:51 | 36.66925 | 119.20728 | 25736 ft | 404 kts | 257° |
| 2026-04-20 14:51 | 36.66062 | 119.17388 | 25762 ft | 405 kts | 257° |
| 2026-04-20 14:51 | 36.65231 | 119.14077 | 25759 ft | 403 kts | 260° |
| 2026-04-20 14:52 | 36.64989 | 119.10644 | 25762 ft | 396 kts | 275° |
| 2026-04-20 14:52 | 36.65251 | 119.07220 | 25759 ft | 397 kts | 276° |
| 2026-04-20 14:52 | 36.65542 | 119.03797 | 25763 ft | 397 kts | 277° |
| 2026-04-20 14:52 | 36.65855 | 119.00374 | 25767 ft | 397 kts | 277° |
| 2026-04-20 14:53 | 36.66183 | 118.96938 | 25767 ft | 397 kts | 277° |
| 2026-04-20 14:53 | 36.66516 | 118.93520 | 25763 ft | 398 kts | 277° |
| 2026-04-20 14:53 | 36.66853 | 118.90100 | 25771 ft | 399 kts | 277° |
| 2026-04-20 14:53 | 36.67187 | 118.86712 | 25766 ft | 399 kts | 277° |
| 2026-04-20 14:54 | 36.67525 | 118.83280 | 25770 ft | 399 kts | 277° |
| 2026-04-20 14:54 | 36.67862 | 118.79842 | 25768 ft | 399 kts | 277° |
| 2026-04-20 14:54 | 36.68199 | 118.76400 | 25770 ft | 399 kts | 277° |
| 2026-04-20 14:54 | 36.68534 | 118.72966 | 25771 ft | 399 kts | 277° |
| 2026-04-20 14:55 | 36.68863 | 118.69579 | 25768 ft | 399 kts | 277° |
| 2026-04-20 14:55 | 36.69197 | 118.66138 | 25780 ft | 399 kts | 277° |
| 2026-04-20 14:55 | 36.69529 | 118.62706 | 25777 ft | 399 kts | 277° |
| 2026-04-20 14:55 | 36.69860 | 118.59271 | 25774 ft | 399 kts | 277° |
| 2026-04-20 14:56 | 36.70190 | 118.55830 | 25774 ft | 399 kts | 277° |
| 2026-04-20 14:56 | 36.70519 | 118.52396 | 25773 ft | 400 kts | 277° |
| 2026-04-20 14:56 | 36.70846 | 118.48968 | 25773 ft | 400 kts | 277° |
| 2026-04-20 14:56 | 36.71174 | 118.45525 | 25773 ft | 399 kts | 277° |
| 2026-04-20 14:57 | 36.71500 | 118.42093 | 25772 ft | 399 kts | 277° |
| 2026-04-20 14:57 | 36.71825 | 118.38651 | 25776 ft | 400 kts | 277° |
| 2026-04-20 14:57 | 36.72150 | 118.35212 | 25771 ft | 400 kts | 277° |
| 2026-04-20 14:57 | 36.72473 | 118.31764 | 25779 ft | 401 kts | 277° |
| 2026-04-20 14:58 | 36.72798 | 118.28306 | 25775 ft | 401 kts | 277° |
| 2026-04-20 14:58 | 36.73121 | 118.24849 | 25783 ft | 401 kts | 277° |
| 2026-04-20 14:58 | 36.73453 | 118.21403 | 25777 ft | 401 kts | 277° |
| 2026-04-20 14:58 | 36.73806 | 118.17964 | 25782 ft | 401 kts | 277° |
| 2026-04-20 14:59 | 36.74157 | 118.14520 | 25746 ft | 401 kts | 277° |
| 2026-04-20 14:59 | 36.74508 | 118.11062 | 25776 ft | 402 kts | 277° |
| 2026-04-20 14:59 | 36.74858 | 118.07590 | 25774 ft | 403 kts | 277° |
| 2026-04-20 14:59 | 36.75208 | 118.04120 | 25780 ft | 403 kts | 277° |
| 2026-04-20 15:00 | 36.75556 | 118.00646 | 25790 ft | 404 kts | 277° |
| 2026-04-20 15:00 | 36.75904 | 117.97171 | 25776 ft | 404 kts | 277° |
| 2026-04-20 15:00 | 36.76251 | 117.93696 | 25777 ft | 404 kts | 277° |
| 2026-04-20 15:00 | 36.76596 | 117.90220 | 25786 ft | 404 kts | 277° |
| 2026-04-20 15:01 | 36.76940 | 117.86747 | 25784 ft | 404 kts | 277° |
| 2026-04-20 15:01 | 36.77284 | 117.83272 | 25788 ft | 404 kts | 277° |
| 2026-04-20 15:01 | 36.77622 | 117.79841 | 25773 ft | 404 kts | 277° |
| 2026-04-20 15:01 | 36.77964 | 117.76366 | 25775 ft | 404 kts | 277° |
| 2026-04-20 15:02 | 36.78304 | 117.72893 | 25770 ft | 403 kts | 277° |
| 2026-04-20 15:02 | 36.78644 | 117.69412 | 25781 ft | 404 kts | 277° |
| 2026-04-20 15:02 | 36.78982 | 117.65944 | 25762 ft | 403 kts | 277° |
| 2026-04-20 15:02 | 36.79318 | 117.62477 | 25785 ft | 404 kts | 277° |
| 2026-04-20 15:03 | 36.79655 | 117.58995 | 25772 ft | 404 kts | 277° |
| 2026-04-20 15:03 | 36.79991 | 117.55516 | 25780 ft | 404 kts | 277° |
| 2026-04-20 15:03 | 36.80326 | 117.52033 | 25773 ft | 404 kts | 277° |
| 2026-04-20 15:03 | 36.80659 | 117.48555 | 25774 ft | 404 kts | 277° |
| 2026-04-20 15:04 | 36.80992 | 117.45070 | 25778 ft | 405 kts | 277° |
| 2026-04-20 15:04 | 36.81324 | 117.41585 | 25778 ft | 405 kts | 277° |
| 2026-04-20 15:04 | 36.81656 | 117.38091 | 25775 ft | 406 kts | 277° |
| 2026-04-20 15:04 | 36.81987 | 117.34592 | 25777 ft | 406 kts | 277° |
| 2026-04-20 15:05 | 36.82317 | 117.31099 | 25780 ft | 405 kts | 277° |
| 2026-04-20 15:05 | 36.82647 | 117.27605 | 25774 ft | 405 kts | 277° |
| 2026-04-20 15:05 | 36.83164 | 117.24154 | 25762 ft | 406 kts | 287° |
| 2026-04-20 15:05 | 36.84438 | 117.21005 | 25774 ft | 411 kts | 302° |
| 2026-04-20 15:06 | 36.86391 | 117.18355 | 25769 ft | 419 kts | 312° |
| 2026-04-20 15:06 | 36.88545 | 117.15897 | 25756 ft | 420 kts | 312° |
| 2026-04-20 15:06 | 36.90723 | 117.13456 | 25762 ft | 421 kts | 313° |
| 2026-04-20 15:06 | 36.92918 | 117.11025 | 25752 ft | 422 kts | 313° |
| 2026-04-20 15:07 | 36.95122 | 117.08602 | 25751 ft | 422 kts | 313° |
| 2026-04-20 15:07 | 36.97333 | 117.06178 | 25751 ft | 422 kts | 313° |
| 2026-04-20 15:07 | 36.99541 | 117.03759 | 25746 ft | 422 kts | 313° |
| 2026-04-20 15:07 | 37.01748 | 117.01339 | 25753 ft | 422 kts | 313° |
| 2026-04-20 15:08 | 37.03957 | 116.98915 | 25792 ft | 422 kts | 313° |
| 2026-04-20 15:08 | 37.06127 | 116.96533 | 25756 ft | 420 kts | 313° |
| 2026-04-20 15:08 | 37.08320 | 116.94124 | 25753 ft | 420 kts | 313° |
| 2026-04-20 15:08 | 37.10520 | 116.91704 | 25747 ft | 420 kts | 313° |
| 2026-04-20 15:09 | 37.12715 | 116.89289 | 25746 ft | 420 kts | 313° |
| 2026-04-20 15:09 | 37.14909 | 116.86872 | 25739 ft | 420 kts | 313° |
| 2026-04-20 15:09 | 37.17098 | 116.84459 | 25740 ft | 420 kts | 313° |
| 2026-04-20 15:09 | 37.19293 | 116.82039 | 25743 ft | 421 kts | 313° |
| 2026-04-20 15:10 | 37.21665 | 116.79843 | 25724 ft | 431 kts | 324° |
| 2026-04-20 15:10 | 37.24498 | 116.78450 | 25748 ft | 442 kts | 334° |
| 2026-04-20 15:10 | 37.27445 | 116.77287 | 25737 ft | 443 kts | 334° |
| 2026-04-20 15:10 | 37.30393 | 116.76143 | 25741 ft | 444 kts | 335° |
| 2026-04-20 15:11 | 37.33337 | 116.75019 | 25756 ft | 442 kts | 335° |
| 2026-04-20 15:11 | 37.36276 | 116.73905 | 25742 ft | 441 kts | 335° |
| 2026-04-20 15:11 | 37.39210 | 116.72794 | 25736 ft | 440 kts | 335° |
| 2026-04-20 15:11 | 37.42141 | 116.71684 | 25733 ft | 440 kts | 335° |
| 2026-04-20 15:12 | 37.45077 | 116.70571 | 25734 ft | 440 kts | 335° |
| 2026-04-20 15:12 | 37.48015 | 116.69457 | 25733 ft | 441 kts | 335° |
| 2026-04-20 15:12 | 37.50942 | 116.68348 | 25727 ft | 441 kts | 335° |
| 2026-04-20 15:12 | 37.53879 | 116.67230 | 25727 ft | 441 kts | 335° |
| 2026-04-20 15:13 | 37.56811 | 116.66116 | 25747 ft | 439 kts | 335° |
| 2026-04-20 15:13 | 37.59696 | 116.65018 | 25731 ft | 438 kts | 334° |
| 2026-04-20 15:13 | 37.62649 | 116.63893 | 25726 ft | 437 kts | 334° |
| 2026-04-20 15:13 | 37.65524 | 116.62798 | 25725 ft | 437 kts | 334° |
| 2026-04-20 15:14 | 37.68442 | 116.61685 | 25718 ft | 437 kts | 334° |
| 2026-04-20 15:14 | 37.71356 | 116.60573 | 25718 ft | 437 kts | 334° |
| 2026-04-20 15:14 | 37.74272 | 116.59459 | 25719 ft | 437 kts | 334° |
| 2026-04-20 15:14 | 37.77180 | 116.58346 | 25719 ft | 437 kts | 334° |
| 2026-04-20 15:15 | 37.79149 | 116.57593 | 25750 ft | 437 kts | 334° |
| 2026-04-20 15:15 | 37.82995 | 116.56120 | 25728 ft | 435 kts | 334° |
| 2026-04-20 15:15 | 37.85892 | 116.55010 | 25721 ft | 435 kts | 334° |
| 2026-04-20 15:15 | 37.87814 | 116.54273 | 25718 ft | 435 kts | 334° |
| 2026-04-20 15:16 | 37.90709 | 116.53162 | 25719 ft | 435 kts | 334° |
| 2026-04-20 15:16 | 37.93606 | 116.52049 | 25718 ft | 435 kts | 334° |
| 2026-04-20 15:16 | 37.96474 | 116.50872 | 25710 ft | 429 kts | 328° |
| 2026-04-20 15:16 | 37.98985 | 116.48989 | 25721 ft | 415 kts | 318° |
| 2026-04-20 15:17 | 38.01364 | 116.46886 | 25704 ft | 417 kts | 318° |
| 2026-04-20 15:17 | 38.03728 | 116.44773 | 25704 ft | 417 kts | 318° |
| 2026-04-20 15:17 | 38.06083 | 116.42639 | 25707 ft | 416 kts | 317° |
| 2026-04-20 15:17 | 38.08438 | 116.40489 | 25705 ft | 416 kts | 317° |
| 2026-04-20 15:18 | 38.10789 | 116.38335 | 25706 ft | 416 kts | 317° |
| 2026-04-20 15:18 | 38.13135 | 116.36182 | 25703 ft | 416 kts | 317° |
| 2026-04-20 15:18 | 38.15474 | 116.34033 | 25565 ft | 411 kts | 317° |
| 2026-04-20 15:18 | 38.17766 | 116.31926 | 25215 ft | 403 kts | 317° |
| 2026-04-20 15:19 | 38.20019 | 116.29852 | 24787 ft | 398 kts | 317° |
| 2026-04-20 15:19 | 38.22260 | 116.27807 | 24292 ft | 397 kts | 320° |
| 2026-04-20 15:19 | 38.24777 | 116.26276 | 23736 ft | 409 kts | 334° |
| 2026-04-20 15:19 | 38.27633 | 116.25687 | 23085 ft | 424 kts | 350° |
| 2026-04-20 15:20 | 38.30596 | 116.26117 | 22495 ft | 436 kts | 5° |
| 2026-04-20 15:20 | 38.33529 | 116.27092 | 21912 ft | 432 kts | 5° |
| 2026-04-20 15:20 | 38.36425 | 116.28048 | 21332 ft | 427 kts | 6° |
| 2026-04-20 15:20 | 38.39281 | 116.29014 | 20771 ft | 422 kts | 6° |
| 2026-04-20 15:21 | 38.42098 | 116.29978 | 20218 ft | 417 kts | 6° |
| 2026-04-20 15:21 | 38.44877 | 116.30933 | 19674 ft | 412 kts | 7° |
| 2026-04-20 15:21 | 38.47627 | 116.31881 | 19159 ft | 406 kts | 7° |
| 2026-04-20 15:21 | 38.50342 | 116.32817 | 18648 ft | 404 kts | 7° |
| 2026-04-20 15:22 | 38.53045 | 116.33750 | 18088 ft | 400 kts | 8° |
| 2026-04-20 15:22 | 38.55718 | 116.34674 | 17549 ft | 397 kts | 8° |
| 2026-04-20 15:22 | 38.58376 | 116.35592 | 17033 ft | 394 kts | 9° |
| 2026-04-20 15:22 | 38.61016 | 116.36507 | 16620 ft | 392 kts | 10° |
| 2026-04-20 15:23 | 38.63511 | 116.37889 | 16597 ft | 404 kts | 26° |
| 2026-04-20 15:23 | 38.65732 | 116.40239 | 16294 ft | 413 kts | 41° |
| 2026-04-20 15:23 | 38.67800 | 116.42649 | 15868 ft | 401 kts | 27° |
| 2026-04-20 15:23 | 38.70309 | 116.43960 | 15468 ft | 386 kts | 10° |
| 2026-04-20 15:24 | 38.72879 | 116.45004 | 15057 ft | 387 kts | 15° |
| 2026-04-20 15:24 | 38.75399 | 116.46202 | 14648 ft | 386 kts | 17° |
| 2026-04-20 15:24 | 38.77896 | 116.47455 | 14246 ft | 384 kts | 18° |
| 2026-04-20 15:24 | 38.80368 | 116.48725 | 13840 ft | 381 kts | 19° |
| 2026-04-20 15:25 | 38.82815 | 116.50003 | 13388 ft | 379 kts | 19° |
| 2026-04-20 15:25 | 38.85250 | 116.51287 | 13035 ft | 377 kts | 19° |
| 2026-04-20 15:25 | 38.87678 | 116.52571 | 12860 ft | 378 kts | 20° |
| 2026-04-20 15:25 | 38.90098 | 116.53855 | 12766 ft | 377 kts | 20° |
| 2026-04-20 15:26 | 38.92531 | 116.55147 | 12763 ft | 377 kts | 20° |
| 2026-04-20 15:26 | 38.94955 | 116.56435 | 12766 ft | 378 kts | 20° |
| 2026-04-20 15:26 | 38.97382 | 116.57725 | 12766 ft | 378 kts | 20° |
| 2026-04-20 15:26 | 38.99804 | 116.59015 | 12757 ft | 378 kts | 20° |
| 2026-04-20 15:27 | 39.02246 | 116.60315 | 12763 ft | 378 kts | 20° |
| 2026-04-20 15:27 | 39.04677 | 116.61611 | 12759 ft | 379 kts | 20° |
| 2026-04-20 15:27 | 39.07114 | 116.62911 | 12758 ft | 379 kts | 20° |
| 2026-04-20 15:27 | 39.09548 | 116.64210 | 12752 ft | 379 kts | 20° |
| 2026-04-20 15:28 | 39.11983 | 116.65511 | 12752 ft | 379 kts | 20° |
| 2026-04-20 15:28 | 39.14422 | 116.66815 | 12752 ft | 379 kts | 20° |
| 2026-04-20 15:28 | 39.16858 | 116.68119 | 12752 ft | 379 kts | 20° |
| 2026-04-20 15:28 | 39.19262 | 116.69406 | 12749 ft | 379 kts | 20° |
| 2026-04-20 15:29 | 39.21695 | 116.70710 | 12747 ft | 379 kts | 20° |
| 2026-04-20 15:29 | 39.24138 | 116.72020 | 12750 ft | 380 kts | 20° |
| 2026-04-20 15:29 | 39.26575 | 116.73328 | 12751 ft | 380 kts | 20° |
| 2026-04-20 15:29 | 39.29016 | 116.74639 | 12748 ft | 380 kts | 20° |
| 2026-04-20 15:30 | 39.31452 | 116.75948 | 12749 ft | 380 kts | 20° |
| 2026-04-20 15:30 | 39.33888 | 116.77258 | 12743 ft | 380 kts | 20° |
| 2026-04-20 15:30 | 39.36327 | 116.78571 | 12748 ft | 379 kts | 20° |
| 2026-04-20 15:30 | 39.38825 | 116.79596 | 12708 ft | 375 kts | 6° |
| 2026-04-20 15:31 | 39.41394 | 116.79651 | 12532 ft | 369 kts | 351° |
| 2026-04-20 15:31 | 39.43945 | 116.79337 | 12284 ft | 368 kts | 353° |
| 2026-04-20 15:31 | 39.46496 | 116.79075 | 12030 ft | 366 kts | 353° |
| 2026-04-20 15:31 | 39.49027 | 116.78831 | 11786 ft | 364 kts | 353° |
| 2026-04-20 15:32 | 39.51542 | 116.78595 | 11542 ft | 361 kts | 353° |
| 2026-04-20 15:32 | 39.54044 | 116.78364 | 11298 ft | 359 kts | 353° |
| 2026-04-20 15:32 | 39.56524 | 116.78137 | 11059 ft | 357 kts | 354° |
| 2026-04-20 15:32 | 39.58993 | 116.77912 | 10823 ft | 355 kts | 354° |
| 2026-04-20 15:33 | 39.61452 | 116.77689 | 10689 ft | 352 kts | 353° |
| 2026-04-20 15:33 | 39.63835 | 116.77471 | 10706 ft | 335 kts | 353° |
| 2026-04-20 15:33 | 39.66102 | 116.77263 | 10706 ft | 319 kts | 353° |
| 2026-04-20 15:33 | 39.68264 | 116.77064 | 10699 ft | 304 kts | 353° |
| 2026-04-20 15:34 | 39.70363 | 116.76872 | 10698 ft | 302 kts | 353° |
| 2026-04-20 15:34 | 39.72419 | 116.76684 | 10697 ft | 290 kts | 353° |
| 2026-04-20 15:34 | 39.74381 | 116.76504 | 10691 ft | 276 kts | 353° |
| 2026-04-20 15:34 | 39.76267 | 116.76332 | 10598 ft | 269 kts | 353° |
| 2026-04-20 15:35 | 39.78128 | 116.76163 | 10395 ft | 267 kts | 353° |
| 2026-04-20 15:35 | 39.79973 | 116.75996 | 10191 ft | 265 kts | 353° |
| 2026-04-20 15:35 | 39.81799 | 116.75831 | 9996 ft | 264 kts | 352° |
| 2026-04-20 15:35 | 39.83633 | 116.75665 | 9756 ft | 263 kts | 352° |
| 2026-04-20 15:36 | 39.85457 | 116.75499 | 9485 ft | 263 kts | 352° |
| 2026-04-20 15:36 | 39.87282 | 116.75334 | 9083 ft | 265 kts | 352° |
| 2026-04-20 15:36 | 39.89126 | 116.75167 | 8714 ft | 265 kts | 353° |
| 2026-04-20 15:36 | 39.90963 | 116.75000 | 8353 ft | 266 kts | 353° |
| 2026-04-20 15:37 | 39.92808 | 116.74833 | 7987 ft | 266 kts | 353° |
| 2026-04-20 15:37 | 39.94657 | 116.74665 | 7633 ft | 266 kts | 353° |
| 2026-04-20 15:37 | 39.96507 | 116.74497 | 7277 ft | 267 kts | 353° |
| 2026-04-20 15:37 | 39.98358 | 116.74329 | 6924 ft | 267 kts | 353° |
| 2026-04-20 15:38 | 40.00212 | 116.74160 | 6572 ft | 268 kts | 353° |
| 2026-04-20 15:38 | 40.02054 | 116.73993 | 6172 ft | 270 kts | 353° |
| 2026-04-20 15:38 | 40.03926 | 116.73801 | 5851 ft | 267 kts | 350° |
| 2026-04-20 15:38 | 40.05723 | 116.73520 | 5834 ft | 255 kts | 350° |
| 2026-04-20 15:39 | 40.07469 | 116.73247 | 5811 ft | 248 kts | 350° |
| 2026-04-20 15:39 | 40.09142 | 116.72989 | 5824 ft | 236 kts | 350° |
| 2026-04-20 15:39 | 40.10751 | 116.72741 | 5819 ft | 231 kts | 349° |
| 2026-04-20 15:39 | 40.12344 | 116.72497 | 5773 ft | 231 kts | 350° |
| 2026-04-20 15:40 | 40.13946 | 116.72253 | 5560 ft | 232 kts | 350° |
| 2026-04-20 15:40 | 40.15546 | 116.72008 | 5317 ft | 231 kts | 350° |
| 2026-04-20 15:40 | 40.17147 | 116.71764 | 5066 ft | 231 kts | 350° |
| 2026-04-20 15:40 | 40.18739 | 116.71520 | 4834 ft | 230 kts | 349° |
| 2026-04-20 15:41 | 40.20307 | 116.71281 | 4678 ft | 222 kts | 349° |
| 2026-04-20 15:41 | 40.21805 | 116.71052 | 4532 ft | 211 kts | 349° |
| 2026-04-20 15:41 | 40.23208 | 116.70834 | 4320 ft | 197 kts | 349° |
| 2026-04-20 15:41 | 40.24534 | 116.70628 | 4077 ft | 188 kts | 349° |
| 2026-04-20 15:42 | 40.25827 | 116.70414 | 3845 ft | 186 kts | 345° |
| 2026-04-20 15:42 | 40.26912 | 116.69627 | 3554 ft | 178 kts | 307° |
| 2026-04-20 15:42 | 40.27331 | 116.68159 | 3221 ft | 174 kts | 271° |
| 2026-04-20 15:42 | 40.27223 | 116.66571 | 3102 ft | 177 kts | 263° |
| 2026-04-20 15:43 | 40.27051 | 116.64975 | 3030 ft | 177 kts | 262° |
| 2026-04-20 15:43 | 40.26879 | 116.63376 | 2979 ft | 177 kts | 262° |
| 2026-04-20 15:43 | 40.26707 | 116.61783 | 2958 ft | 177 kts | 262° |
| 2026-04-20 15:43 | 40.26256 | 116.60328 | 2909 ft | 178 kts | 230° |
| 2026-04-20 15:44 | 40.25275 | 116.59320 | 2879 ft | 182 kts | 211° |
| 2026-04-20 15:44 | 40.24081 | 116.58760 | 2823 ft | 186 kts | 189° |
| 2026-04-20 15:44 | 40.22791 | 116.58915 | 2763 ft | 186 kts | 173° |
| 2026-04-20 15:44 | 40.21541 | 116.59242 | 2631 ft | 180 kts | 174° |
| 2026-04-20 15:45 | 40.20320 | 116.59487 | 2407 ft | 174 kts | 177° |
| 2026-04-20 15:45 | 40.19137 | 116.59689 | 2176 ft | 168 kts | 179° |
| 2026-04-20 15:45 | 40.17988 | 116.59871 | 1953 ft | 163 kts | 179° |
| 2026-04-20 15:45 | 40.16894 | 116.60045 | 1782 ft | 155 kts | 180° |
| 2026-04-20 15:46 | 40.15839 | 116.60211 | 1530 ft | 150 kts | 179° |
| 2026-04-20 15:46 | 40.14812 | 116.60372 | 1311 ft | 148 kts | 179° |
| 2026-04-20 15:46 | 40.13785 | 116.60532 | 1097 ft | 148 kts | 179° |
| 2026-04-20 15:46 | 40.12788 | 116.60687 | 889 ft | 142 kts | 176° |
| 2026-04-20 15:47 | 40.11814 | 116.60834 | 652 ft | 141 kts | 175° |
| 2026-04-20 15:47 | 40.10845 | 116.60990 | 454 ft | 140 kts | 175° |
| 2026-04-20 15:47 | 40.09874 | 116.61142 | 276 ft | 141 kts | 174° |
| 2026-04-20 15:47 | 40.08898 | 116.61297 | 131 ft | 138 kts | 175° |
| 2026-04-20 15:48 | 40.08129 | 116.61411 | 124 ft | 77 kts | 173° |
| 2026-04-20 15:48 | 40.07728 | 116.61479 | 124 ft | 36 kts | 173° |
| 2026-04-20 15:48 | 40.07490 | 116.61516 | 123 ft | 31 kts | 173° |
| 2026-04-20 15:48 | 40.07287 | 116.61489 | 123 ft | 22 kts | 198° |
| 2026-04-20 15:49 | 40.07209 | 116.61448 | 123 ft | 1 kts | 204° |
| 2026-04-20 15:50 | 40.07207 | 116.61447 | 123 ft | 1 kts | 204° |
| 2026-04-20 15:50 | 40.07191 | 116.61438 | 123 ft | 4 kts | 203° |
| 2026-04-20 15:50 | 40.07172 | 116.61428 | 123 ft | 0 kts | 203° |
| 2026-04-20 15:51 | 40.07162 | 116.61422 | 124 ft | 3 kts | 203° |
| 2026-04-20 15:51 | 40.07129 | 116.61404 | 122 ft | 7 kts | 203° |
| 2026-04-20 15:51 | 40.07116 | 116.61396 | 125 ft | 0 kts | 203° |
| 2026-04-20 15:52 | 40.07114 | 116.61395 | 125 ft | 2 kts | 203° |
| 2026-04-20 15:52 | 40.07091 | 116.61383 | 123 ft | 5 kts | 203° |
| 2026-04-20 15:52 | 40.07044 | 116.61363 | 126 ft | 9 kts | 193° |
| 2026-04-20 15:53 | 40.06965 | 116.61290 | 126 ft | 8 kts | 258° |
| 2026-04-20 15:53 | 40.06957 | 116.61204 | 126 ft | 12 kts | 264° |
| 2026-04-20 15:53 | 40.06946 | 116.61082 | 126 ft | 15 kts | 262° |
| 2026-04-20 15:53 | 40.06932 | 116.60929 | 124 ft | 16 kts | 263° |
| 2026-04-20 15:54 | 40.06918 | 116.60769 | 125 ft | 19 kts | 263° |
| 2026-04-20 15:54 | 40.06900 | 116.60582 | 124 ft | 22 kts | 263° |
| 2026-04-20 15:54 | 40.06902 | 116.60427 | 122 ft | 12 kts | 308° |
| 2026-04-20 15:54 | 40.06958 | 116.60408 | 125 ft | 9 kts | 358° |
| 2026-04-20 15:55 | 40.07027 | 116.60399 | 121 ft | 11 kts | 352° |
| 2026-04-20 15:55 | 40.07114 | 116.60384 | 123 ft | 14 kts | 352° |
| 2026-04-20 15:55 | 40.07180 | 116.60375 | 123 ft | 8 kts | 4° |
| 2026-04-20 15:55 | 40.07207 | 116.60434 | 125 ft | 9 kts | 83° |
| 2026-04-20 15:56 | 40.07214 | 116.60504 | 124 ft | 4 kts | 83° |
| 2026-04-20 15:56 | 40.07214 | 116.60505 | 124 ft | 0 kts | 83° |
| 2026-04-20 16:02 | 40.07214 | 116.60506 | 123 ft | 0 kts | 83° |